• Join FlightAware (Why Join?)
  • Login
  • US Flag 
12:02AM EDT


 

Airport Tracker/Info


-or-


 

Live Flight TrackerFlight Track Log ✈ ASA10 ✈ 27-Jul-2013 ✈ KSEA - KMCO

Flight Track Log - Related Links

Times and Time Zones

All times are in EDT time to prevent confusion due to time zone crossing. See the ASA10 flight status page for this flight to view local times or setup timezone preferences in your user account.

Time Position Orientation Groundspeed Altitude Reporting Facility
EDT Latitude Longitude Course Direction KTS MPH feet Rate Location/Type
01:04AM 47.4681 -122.3086 360° North 187 215 1,200  Level Seattle Center
01:04AM 47.4972 -122.3089 360° North 190 219 2,100 2,160 Climbing Seattle Center
01:05AM 47.5539 -122.3139 357° North 239 275 4,300 2,460 Climbing Seattle Center
01:06AM 47.6089 -122.3953 315° West 254 292 7,400 2,340 Climbing Seattle Center
01:07AM 47.6439 -122.4897 299° West 272 313 9,700 1,740 Climbing Seattle Center
01:08AM 47.7147 -122.4333 28° Northeast 336 387 11,000 1,740 Climbing Seattle Center
01:09AM 47.6867 -122.2936 107° East 379 436 13,300 2,280 Climbing Seattle Center
01:10AM 47.6258 -122.1614 124° Southeast 387 445 15,600 2,160 Climbing Seattle Center
01:11AM 47.5675 -122.0228 122° Southeast 393 452 17,700 1,860 Climbing Seattle Center
01:12AM 47.5069 -121.8892 124° Southeast 406 467 19,400 1,800 Climbing Seattle Center
01:13AM 47.4411 -121.7469 124° Southeast 420 483 21,400 1,800 Climbing Seattle Center
01:14AM 47.3925 -121.5858 114° Southeast 435 501 23,100 1,560 Climbing Seattle Center
01:15AM 47.3489 -121.4167 111° Southeast 444 511 24,600 1,380 Climbing Seattle Center
01:16AM 47.3017 -121.2461 112° Southeast 452 520 26,000 1,320 Climbing Seattle Center
01:17AM 47.2522 -121.0711 113° Southeast 465 535 27,300 1,320 Climbing Seattle Center
01:18AM 47.1939 -120.8592 112° Southeast 471 542 28,700 1,380 Climbing Seattle Center
01:19AM 47.1547 -120.6744 107° East 484 557 30,100 1,140 Climbing Seattle Center
01:20AM 47.1181 -120.4872 106° East 482 555 31,000 900 Climbing Seattle Center
01:21AM 47.0794 -120.2972 107° East 486 559 32,000 1,020 Climbing Seattle Center
01:22AM 47.0422 -120.1078 106° East 485 558 33,100 1,080 Climbing Seattle Center
01:23AM 47.0017 -119.9208 108° East 483 556 34,200 900 Climbing Seattle Center
01:24AM 46.9622 -119.7347 107° East 481 554 35,000 300 Climbing Seattle Center
01:25AM 46.9242 -119.5478 107° East 481 554 34,900  Descending Seattle Center
01:26AM 46.8844 -119.3625 107° East 480 552 35,000  Climbing Seattle Center
01:28AM 46.8467 -119.1781 107° East 477 549 35,000  Level Seattle Center
01:29AM 46.8069 -118.9944 107° East 477 549 35,000  Level Seattle Center
01:30AM 46.7667 -118.8122 108° East 474 545 35,000  Level Seattle Center
01:31AM 46.7267 -118.6272 107° East 479 551 35,000  Level Seattle Center
01:32AM 46.6872 -118.4450 107° East 477 549 35,000  Level Seattle Center
01:33AM 46.6464 -118.2631 108° East 476 548 35,000  Level Seattle Center
01:34AM 46.6047 -118.0808 108° East 477 549 35,000  Level Seattle Center
01:35AM 46.5631 -117.8961 108° East 483 556 35,000  Level Seattle Center
01:36AM 46.5214 -117.7136 108° East 481 554 35,000  Level Seattle Center
01:37AM 46.4792 -117.5328 109° East 478 550 35,000  Level Seattle Center
01:38AM 46.4369 -117.3506 109° East 478 550 35,000  Level Seattle Center
01:39AM 46.3944 -117.1681 109° East 481 554 35,000  Level Seattle Center
01:40AM 46.3419 -116.9514 109° East 479 551 35,000  Level Seattle Center
01:41AM 46.2986 -116.7678 109° East 483 556 35,000  Level Seattle Center
01:42AM 46.2536 -116.5839 109° East 488 562 35,000  Level Seattle Center
01:43AM 46.2106 -116.4000 109° East 487 560 35,000  Level Seattle Center
01:44AM 46.1658 -116.2156 109° East 486 559 35,000  Level Seattle Center
01:45AM 46.1214 -116.0347 109° East 484 557 35,000  Level Seattle Center
01:45AM 46.0947 -115.9250 109° East 485 558 35,000  Level Salt Lake Center
01:46AM 46.0433 -115.7231 110° East 483 556 35,000  Level Salt Lake Center
01:47AM 46.0006 -115.5467 109° East 486 559 35,000  Level Salt Lake Center
01:48AM 45.9478 -115.3425 110° East 487 560 35,000  Level Salt Lake Center
01:49AM 45.9014 -115.1653 111° Southeast 492 566 35,000  Level Salt Lake Center
01:50AM 45.8567 -114.9875 110° East 493 567 35,000  Level Salt Lake Center
01:51AM 45.8100 -114.8114 111° Southeast 493 567 35,000  Level Salt Lake Center
01:52AM 45.7564 -114.6069 111° Southeast 492 566 35,000  Level Salt Lake Center
01:53AM 45.7097 -114.4317 111° Southeast 492 566 35,000  Level Salt Lake Center
01:54AM 45.6653 -114.2644 111° Southeast 493 567 35,000  Level Salt Lake Center
01:55AM 45.6161 -114.0817 111° Southeast 494 568 35,000  Level Salt Lake Center
01:56AM 45.5600 -113.8775 111° Southeast 492 566 35,000  Level Salt Lake Center
01:57AM 45.5128 -113.7036 111° Southeast 491 565 35,000  Level Salt Lake Center
01:58AM 45.4636 -113.5258 111° Southeast 489 563 35,000  Level Salt Lake Center
01:59AM 45.4142 -113.3456 111° Southeast 488 562 35,000  Level Salt Lake Center
02:00AM 45.3647 -113.1672 111° Southeast 487 560 35,000  Level Salt Lake Center
02:01AM 45.3131 -112.9828 112° Southeast 487 560 35,000  Level Salt Lake Center
02:02AM 45.2642 -112.8122 112° Southeast 487 560 35,000  Level Salt Lake Center
02:03AM 45.2075 -112.6119 112° Southeast 490 564 35,000  Level Salt Lake Center
02:04AM 45.1592 -112.4403 112° Southeast 490 564 35,000  Level Salt Lake Center
02:05AM 45.1086 -112.2672 112° Southeast 495 570 35,000  Level Salt Lake Center
02:06AM 45.0492 -112.0636 112° Southeast 500 575 35,000  Level Salt Lake Center
02:07AM 44.9978 -111.8897 113° Southeast 501 577 35,000  Level Salt Lake Center
02:09AM 44.9461 -111.7136 112° Southeast 504 580 35,000  Level Salt Lake Center
02:10AM 44.8933 -111.5364 113° Southeast 508 585 35,000  Level Salt Lake Center
02:11AM 44.8322 -111.3308 113° Southeast 505 581 35,000  Level Salt Lake Center
02:12AM 44.7786 -111.1536 113° Southeast 506 582 35,000  Level Salt Lake Center
02:13AM 44.7244 -110.9756 113° Southeast 511 588 35,000  Level Salt Lake Center
02:14AM 44.6706 -110.8000 113° Southeast 509 586 35,000  Level Salt Lake Center
02:15AM 44.6075 -110.5978 114° Southeast 506 582 35,000  Level Salt Lake Center
02:16AM 44.5544 -110.4214 113° Southeast 511 588 35,000  Level Salt Lake Center
02:17AM 44.4994 -110.2475 114° Southeast 510 587 35,000  Level Salt Lake Center
02:18AM 44.4353 -110.0467 114° Southeast 507 583 35,000  Level Salt Lake Center
02:19AM 44.3808 -109.8731 114° Southeast 510 587 35,000  Level Salt Lake Center
02:20AM 44.3258 -109.6989 114° Southeast 511 588 35,000  Level Salt Lake Center
02:21AM 44.2711 -109.5256 114° Southeast 511 588 35,000  Level Salt Lake Center
02:22AM 44.2108 -109.3486 115° Southeast 509 586 35,000  Level Salt Lake Center
02:23AM 44.1519 -109.1717 115° Southeast 507 583 35,000  Level Salt Lake Center
02:24AM 44.0942 -108.9950 114° Southeast 506 582 35,000  Level Salt Lake Center
02:25AM 44.0250 -108.7839 114° Southeast 505 581 35,000  Level Salt Lake Center
02:26AM 43.9658 -108.6092 115° Southeast 504 580 35,000  Level Salt Lake Center
02:27AM 43.9075 -108.4356 115° Southeast 503 579 35,000  Level Salt Lake Center
02:28AM 43.8494 -108.2608 115° Southeast 502 578 35,000  Level Salt Lake Center
02:29AM 43.7900 -108.0844 115° Southeast 508 585 35,000  Level Salt Lake Center
02:30AM 43.7297 -107.9086 115° Southeast 509 586 35,000  Level Salt Lake Center
02:31AM 43.6694 -107.7328 115° Southeast 510 587 35,000  Level Salt Lake Center
02:32AM 43.6072 -107.5567 116° Southeast 513 590 35,000  Level Salt Lake Center
02:33AM 43.5467 -107.3797 115° Southeast 514 592 35,000  Level Salt Lake Center
02:34AM 43.4858 -107.2050 116° Southeast 510 587 35,000  Level Salt Lake Center
02:35AM 43.4242 -107.0294 116° Southeast 512 589 35,000  Level Denver Center
02:36AM 43.3578 -106.8419 116° Southeast 510 587 35,000  Level Denver Center
02:37AM 43.2972 -106.6742 116° Southeast 511 588 35,000  Level Denver Center
02:38AM 43.2375 -106.5067 116° Southeast 513 590 35,000  Level Denver Center
02:39AM 43.1656 -106.3097 117° Southeast 518 596 35,000  Level Denver Center
02:40AM 43.1053 -106.1408 116° Southeast 517 595 35,000  Level Denver Center
02:41AM 43.0425 -105.9731 117° Southeast 518 596 35,000  Level Denver Center
02:42AM 42.9717 -105.7792 116° Southeast 512 589 35,000  Level Denver Center
02:43AM 42.9089 -105.6114 117° Southeast 517 595 35,000  Level Denver Center
02:44AM 42.8469 -105.4458 117° Southeast 514 592 35,000  Level Denver Center
02:45AM 42.7836 -105.2803 117° Southeast 514 592 35,000  Level Denver Center
02:46AM 42.7100 -105.0864 117° Southeast 517 595 35,000  Level Denver Center
02:47AM 42.6469 -104.9211 117° Southeast 515 593 35,000  Level Denver Center
02:48AM 42.5833 -104.7583 118° Southeast 514 592 35,000  Level Denver Center
02:49AM 42.5094 -104.5681 118° Southeast 532 612 35,000  Level Denver Center
02:50AM 42.4475 -104.4050 117° Southeast 522 601 35,000  Level Denver Center
02:51AM 42.3739 -104.2156 118° Southeast 513 590 35,000  Level Denver Center
02:52AM 42.3100 -104.0514 118° Southeast 515 593 35,000  Level Denver Center
02:53AM 42.2450 -103.8878 118° Southeast 516 594 35,000  Level Denver Center
02:54AM 42.1700 -103.6969 118° Southeast 516 594 35,000  Level Denver Center
02:55AM 42.1031 -103.5331 119° Southeast 522 601 35,000  Level Denver Center
02:56AM 42.0383 -103.3694 118° Southeast 517 595 35,000  Level Denver Center
02:57AM 41.9719 -103.2075 119° Southeast 516 594 35,000  Level Denver Center
02:58AM 41.8833 -102.9886 118° Southeast 524 603 35,000  Level Denver Center
02:59AM 41.8167 -102.8272 119° Southeast 517 595 35,000  Level Denver Center
03:00AM 41.7503 -102.6658 119° Southeast 516 594 35,000  Level Denver Center
03:01AM 41.6736 -102.4808 119° Southeast 524 603 35,000  Level Denver Center
03:02AM 41.6061 -102.3211 119° Southeast 517 595 35,000  Level Denver Center
03:03AM 41.5308 -102.1339 118° Southeast 513 590 35,000  Level Denver Center
03:04AM 41.4628 -101.9742 120° Southeast 517 595 35,000  Level Denver Center
03:05AM 41.3944 -101.8150 120° Southeast 516 594 35,000  Level Denver Center
03:06AM 41.3033 -101.6006 119° Southeast 522 601 35,000  Level Denver Center
03:07AM 41.2344 -101.4406 120° Southeast 521 600 35,000  Level Denver Center
03:08AM 41.1661 -101.2806 120° Southeast 521 600 35,000  Level Denver Center
03:09AM 41.0850 -101.0939 120° Southeast 522 601 35,000  Level Denver Center
03:10AM 41.0153 -100.9350 120° Southeast 520 598 35,000  Level Denver Center
03:11AM 40.9467 -100.7750 120° Southeast 516 594 35,000  Level Denver Center
03:12AM 40.8731 -100.6075 120° Southeast 527 606 35,000  Level Denver Center
03:13AM 40.8011 -100.4481 121° Southeast 523 602 35,000  Level Denver Center
03:14AM 40.7186 -100.2644 121° Southeast 520 598 35,000  Level Denver Center
03:15AM 40.6483 -100.1075 121° Southeast 520 598 35,000  Level Denver Center
03:16AM 40.5775 -99.9511 121° Southeast 521 600 35,000  Level Denver Center
03:17AM 40.5061 -99.7956 121° Southeast 520 598 35,000  Level Denver Center
03:18AM 40.4328 -99.6339 121° Southeast 518 596 35,000  Level Denver Center
03:19AM 40.3586 -99.4717 121° Southeast 519 597 35,000  Level Denver Center
03:20AM 40.2847 -99.3108 121° Southeast 519 597 35,000  Level Denver Center
03:21AM 40.2106 -99.1506 121° Southeast 518 596 35,000  Level Denver Center
03:22AM 40.1508 -99.0236 122° Southeast 518 596 35,000  Level Minneapolis Center
03:23AM 40.0764 -98.8628 121° Southeast 520 598 35,000  Level Minneapolis Center
03:24AM 39.9997 -98.7008 122° Southeast 523 602 35,000  Level Minneapolis Center
03:25AM 39.9236 -98.5397 122° Southeast 524 603 35,000  Level Minneapolis Center
03:26AM 39.8472 -98.3783 122° Southeast 524 603 35,000  Level Minneapolis Center
03:27AM 39.7703 -98.2153 122° Southeast 528 608 35,000  Level Minneapolis Center
03:28AM 39.6928 -98.0525 122° Southeast 531 611 35,000  Level Minneapolis Center
03:29AM 39.6178 -97.8953 122° Southeast 527 606 35,000  Level Kansas City Center
03:30AM 39.5375 -97.7319 122° Southeast 520 598 35,000  Level Kansas City Center
03:31AM 39.4600 -97.5664 121° Southeast 535 616 35,000  Level Kansas City Center
03:32AM 39.3839 -97.4189 124° Southeast 519 597 35,000  Level Kansas City Center
03:33AM 39.3086 -97.2636 122° Southeast 529 609 35,000  Level Kansas City Center
03:34AM 39.2208 -97.0844 122° Southeast 531 611 35,000  Level Kansas City Center
03:35AM 39.1439 -96.9306 123° Southeast 533 613 35,000  Level Kansas City Center
03:36AM 39.0678 -96.7772 123° Southeast 533 613 35,000  Level Kansas City Center
03:37AM 38.9853 -96.6111 123° Southeast 531 611 35,000  Level Kansas City Center
03:38AM 38.9019 -96.4469 123° Southeast 532 612 35,000  Level Kansas City Center
03:39AM 38.8258 -96.2956 123° Southeast 531 611 35,000  Level Kansas City Center
03:40AM 38.7483 -96.1442 123° Southeast 532 612 35,000  Level Kansas City Center
03:41AM 38.6567 -95.9667 123° Southeast 533 613 35,000  Level Kansas City Center
03:42AM 38.5797 -95.8172 123° Southeast 532 612 35,000  Level Kansas City Center
03:43AM 38.5033 -95.6689 123° Southeast 528 608 35,000  Level Kansas City Center
03:44AM 38.4258 -95.5194 123° Southeast 529 609 35,000  Level Kansas City Center
03:45AM 38.3356 -95.3461 124° Southeast 528 608 35,000  Level Kansas City Center
03:46AM 38.2569 -95.1989 124° Southeast 527 606 35,000  Level Kansas City Center
03:47AM 38.1797 -95.0475 123° Southeast 530 610 35,000  Level Kansas City Center
03:48AM 38.0883 -94.8750 124° Southeast 529 609 35,000  Level Kansas City Center
03:49AM 38.0083 -94.7289 125° Southeast 528 608 35,000  Level Kansas City Center
03:50AM 37.9314 -94.5797 123° Southeast 529 609 35,000  Level Kansas City Center
03:51AM 37.8489 -94.4286 125° Southeast 527 606 35,000  Level Kansas City Center
03:52AM 37.7650 -94.2744 125° Southeast 531 611 35,000  Level Kansas City Center
03:53AM 37.6817 -94.1203 124° Southeast 532 612 35,000  Level Kansas City Center
03:54AM 37.5864 -93.9775 130° Southeast 538 619 35,000  Level Kansas City Center
03:55AM 37.4642 -93.8728 146° Southeast 532 612 35,000  Level Kansas City Center
03:56AM 37.3750 -93.7214 127° Southeast 541 623 35,000  Level Kansas City Center
03:57AM 37.2911 -93.5650 124° Southeast 540 621 35,000  Level Kansas City Center
03:58AM 37.2064 -93.4092 124° Southeast 541 623 35,000  Level Kansas City Center
03:59AM 37.1219 -93.2542 124° Southeast 540 621 35,000  Level Kansas City Center
04:00AM 37.0369 -93.0997 125° Southeast 541 623 35,000  Level Kansas City Center
04:01AM 36.9514 -92.9469 125° Southeast 539 620 35,000  Level Kansas City Center
04:02AM 36.8664 -92.7944 125° Southeast 537 618 35,000  Level Kansas City Center
04:03AM 36.7817 -92.6417 125° Southeast 536 617 35,000  Level Kansas City Center
04:04AM 36.6972 -92.4886 125° Southeast 537 618 35,000  Level Kansas City Center
04:05AM 36.6114 -92.3372 125° Southeast 537 618 35,000  Level Kansas City Center
04:06AM 36.5133 -92.1631 125° Southeast 537 618 35,100 540 Climbing Kansas City Center
04:07AM 36.4236 -92.0083 126° Southeast 545 627 36,100 840 Climbing Kansas City Center
04:08AM 36.3311 -91.8486 126° Southeast 552 635 37,000 420 Climbing Memphis Center
04:09AM 36.2411 -91.6950 126° Southeast 552 635 37,000  Level Memphis Center
04:10AM 36.1531 -91.5444 126° Southeast 546 628 37,000  Level Memphis Center
04:11AM 36.0647 -91.3944 126° Southeast 546 628 37,000  Level Memphis Center
04:12AM 35.9761 -91.2444 126° Southeast 551 634 37,000  Level Memphis Center
04:13AM 35.8897 -91.0925 125° Southeast 551 634 37,000  Level Memphis Center
04:14AM 35.8028 -90.9458 126° Southeast 545 627 37,000  Level Memphis Center
04:15AM 35.7158 -90.7969 126° Southeast 545 627 37,000  Level Memphis Center
04:16AM 35.6328 -90.6483 124° Southeast 539 620 37,000  Level Memphis Center
04:17AM 35.5456 -90.5050 127° Southeast 534 615 37,000  Level Memphis Center
04:18AM 35.4600 -90.3569 125° Southeast 534 615 37,000  Level Memphis Center
04:19AM 35.3744 -90.2119 126° Southeast 527 606 37,000  Level Memphis Center
04:20AM 35.2867 -90.0697 127° Southeast 522 601 37,000  Level Memphis Center
04:21AM 35.1942 -89.9125 126° Southeast 522 601 37,000  Level Memphis Center
04:22AM 35.1103 -89.7708 126° Southeast 522 601 37,000  Level Memphis Center
04:23AM 35.0261 -89.6267 125° Southeast 527 606 37,000  Level Memphis Center
04:24AM 34.9353 -89.4858 128° Southeast 527 606 37,000  Level Memphis Center
04:25AM 34.8572 -89.3625 128° Southeast 527 606 37,000  Level Memphis Center
04:26AM 34.7706 -89.2219 127° Southeast 519 597 37,000  Level Memphis Center
04:27AM 34.6858 -89.0867 127° Southeast 512 589 37,000  Level Memphis Center
04:28AM 34.6008 -88.9517 127° Southeast 512 589 37,000  Level Memphis Center
04:29AM 34.5114 -88.8094 127° Southeast 505 581 37,000  Level Memphis Center
04:30AM 34.4264 -88.6778 128° Southeast 500 575 37,000  Level Memphis Center
04:31AM 34.3450 -88.5433 126° Southeast 500 575 37,000  Level Memphis Center
04:32AM 34.2619 -88.4169 128° Southeast 494 568 37,000  Level Memphis Center
04:33AM 34.1783 -88.2858 128° Southeast 494 568 37,000  Level Memphis Center
04:34AM 34.0967 -88.1497 126° Southeast 489 563 37,000  Level Memphis Center
04:36AM 33.9339 -87.9044 129° Southeast 477 549 37,000  Level Atlanta Center
04:37AM 33.8503 -87.7731 127° Southeast 483 556 37,000  Level Atlanta Center
04:38AM 33.7686 -87.6447 127° Southeast 483 556 37,000  Level Atlanta Center
04:39AM 33.6867 -87.5189 128° Southeast 483 556 37,000  Level Atlanta Center
04:40AM 33.6047 -87.3883 127° Southeast 483 556 37,000  Level Atlanta Center
04:41AM 33.5225 -87.2631 128° Southeast 483 556 37,000  Level Atlanta Center
04:42AM 33.4422 -87.1381 128° Southeast 478 550 37,000  Level Atlanta Center
04:43AM 33.3578 -87.0108 128° Southeast 478 550 37,000  Level Atlanta Center
04:44AM 33.2872 -86.9017 128° Southeast 478 550 37,000  Level Atlanta Center
04:45AM 33.2067 -86.7747 127° Southeast 478 550 37,000  Level Atlanta Center
04:46AM 33.1197 -86.6456 129° Southeast 478 550 37,000  Level Atlanta Center
04:47AM 33.0367 -86.5192 128° Southeast 483 556 37,000  Level Atlanta Center
04:48AM 32.9494 -86.3956 130° Southeast 483 556 37,000  Level Atlanta Center
04:49AM 32.8683 -86.2672 127° Southeast 483 556 37,000  Level Atlanta Center
04:50AM 32.7847 -86.1439 129° Southeast 478 550 37,000  Level Atlanta Center
04:51AM 32.7014 -86.0186 128° Southeast 478 550 37,000  Level Atlanta Center
04:52AM 32.6197 -85.8983 129° Southeast 478 550 37,000  Level Atlanta Center
04:53AM 32.5358 -85.7733 129° Southeast 478 550 37,000  Level Atlanta Center
04:54AM 32.4439 -85.6411 129° Southeast 478 550 37,000  Level Atlanta Center
04:55AM 32.3597 -85.5217 130° Southeast 478 550 37,000  Level Atlanta Center
04:56AM 32.2775 -85.3997 129° Southeast 478 550 37,000  Level Atlanta Center
04:57AM 32.1953 -85.2833 130° Southeast 478 550 37,000  Level Atlanta Center
04:59AM 32.0681 -85.0989 129° Southeast 465 535 37,000  Level Jacksonville Center
05:00AM 31.9864 -84.9794 129° Southeast 465 535 37,000  Level Jacksonville Center
05:01AM 31.9006 -84.8625 131° Southeast 465 535 37,000  Level Jacksonville Center
05:02AM 31.8169 -84.7386 128° Southeast 460 529 37,000  Level Jacksonville Center
05:03AM 31.7286 -84.6317 134° Southeast 455 524 37,000  Level Jacksonville Center
05:04AM 31.6297 -84.5322 139° Southeast 455 524 37,000  Level Jacksonville Center
05:05AM 31.5350 -84.4306 138° Southeast 465 535 37,000  Level Jacksonville Center
05:06AM 31.4381 -84.3317 139° Southeast 465 535 37,000  Level Jacksonville Center
05:07AM 31.3411 -84.2281 138° Southeast 465 535 37,000  Level Jacksonville Center
05:08AM 31.2461 -84.1269 138° Southeast 465 535 37,000  Level Jacksonville Center
05:09AM 31.1531 -84.0261 137° Southeast 465 535 37,000  Level Jacksonville Center
05:10AM 31.0558 -83.9256 138° Southeast 465 535 37,000  Level Jacksonville Center
05:11AM 30.9606 -83.8206 137° Southeast 465 535 37,000  Level Jacksonville Center
05:12AM 30.8653 -83.7178 137° Southeast 465 535 37,000  Level Jacksonville Center
05:13AM 30.7678 -83.6178 139° Southeast 465 535 37,000  Level Jacksonville Center
05:14AM 30.6783 -83.5158 136° Southeast 460 529 37,000  Level Jacksonville Center
05:15AM 30.5808 -83.4161 139° Southeast 460 529 37,000  Level Jacksonville Center
05:16AM 30.4850 -83.3144 138° Southeast 466 536 37,000  Level Jacksonville Center
05:17AM 30.3914 -83.2153 138° Southeast 466 536 37,000  Level Jacksonville Center
05:18AM 30.2956 -83.1164 138° Southeast 461 531 37,000  Level Jacksonville Center
05:19AM 30.2039 -83.0200 138° Southeast 461 531 37,000 -180 Level Jacksonville Center
05:20AM 30.1100 -82.9214 138° Southeast 461 531 36,700 -1,500 Descending Jacksonville Center
05:21AM 30.0139 -82.8303 141° Southeast 461 531 34,100 -2,700 Descending Jacksonville Center
05:22AM 29.9197 -82.7344 139° Southeast 461 531 31,300 -2,580 Descending Jacksonville Center
05:23AM 29.8278 -82.6317 136° Southeast 461 531 29,000 -2,100 Descending Jacksonville Center
05:24AM 29.7442 -82.5481 139° Southeast 456 525 27,100 -2,100 Descending Jacksonville Center
05:25AM 29.6542 -82.4528 137° Southeast 446 513 24,900 -2,220 Descending Jacksonville Center
05:26AM 29.5639 -82.3625 139° Southeast 438 504 22,700 -2,160 Descending Jacksonville Center
05:27AM 29.4800 -82.2794 139° Southeast 421 484 20,600 -2,100 Descending Jacksonville Center
05:28AM 29.3983 -82.1964 138° Southeast 407 468 18,500 -2,580 Descending Jacksonville Center
05:29AM 29.3206 -82.1136 137° Southeast 394 453 15,500 -2,700 Descending Jacksonville Center
05:30AM 29.2450 -82.0406 140° Southeast 374 430 13,100 -2,040 Descending Jacksonville Center
05:31AM 29.1756 -81.9697 138° Southeast 358 412 11,500 -1,140 Descending Jacksonville Center
05:32AM 29.1103 -81.9064 140° Southeast 326 375 10,900 -300 Descending Jacksonville Center
05:33AM 29.0494 -81.8450 139° Southeast 308 354 10,900  Level Jacksonville Center
05:34AM 28.9903 -81.7817 137° Southeast 298 343 10,900 -240 Level Jacksonville Center
05:35AM 28.9272 -81.7206 140° Southeast 298 343 10,500 -960 Descending Jacksonville Center
05:36AM 28.8661 -81.6597 139° Southeast 298 343 9,000 -1,560 Descending Jacksonville Center
05:36AM 28.8333 -81.6167 131° Southeast 289 333 8,100 -1,440 Descending Orlando TRACON
05:37AM 28.7667 -81.5667 147° Southeast 278 320 6,800 -1,560 Descending Orlando TRACON
05:38AM 28.7167 -81.5000 131° Southeast 271 312 5,000 -1,440 Descending Orlando TRACON
05:39AM 28.6667 -81.4500 139° Southeast 252 290 4,000 -720 Descending Orlando TRACON
05:40AM 28.6167 -81.4000 139° Southeast 199 229 3,600 -540 Descending Orlando TRACON
05:41AM 28.5833 -81.3500 127° Southeast 184 212 3,000 -780 Descending Orlando TRACON
05:42AM 28.5500 -81.3167 139° Southeast 158 182 2,100 -900 Descending Orlando TRACON
05:43AM 28.5000 -81.3167 180° South 157 181 1,200 -900 Descending Orlando TRACON
05:44AM 28.4667 -81.3167 180° South 159 183 300 -900 Descending Orlando TRACON
05:46AM 28.4294 -81.3090 139° Southeast  Level Estimated
05:53AM 28.4294 -81.3090 139° Southeast  Level Estimated
05:54AM 28.4294 -81.3090 139° Southeast  Level Estimated
05:55AM 28.4294 -81.3090 139° Southeast  Level Estimated
05:56AM 28.4294 -81.3090 139° Southeast  Level Estimated